Time,TemperatureF,DewpointF,PressureIn,WindDirection,WindDirectionDegrees,WindSpeedMPH,WindSpeedGustMPH,Humidity,HourlyPrecipIn,Conditions,Clouds,dailyrainin,SoftwareType,DateUTC
2013-04-05 00:02:00,31.1,30.0,29.94,SSE,166,0.0,1.0,97,0.00,,,0.01,weatherlink.com 1.10,2013-04-05 04:02:00,
2013-04-05 00:17:00,31.1,30.0,29.93,SSE,166,0.0,3.0,97,0.00,,,0.01,weatherlink.com 1.10,2013-04-05 04:17:00,
2013-04-05 00:32:00,31.0,30.0,29.94,SSE,166,0.0,0.0,97,0.00,,,0.01,weatherlink.com 1.10,2013-04-05 04:32:00,
2013-04-05 00:47:00,31.3,31.0,29.94,SSE,166,0.0,1.0,97,0.00,,,0.01,weatherlink.com 1.10,2013-04-05 04:47:00,
2013-04-05 01:05:00,31.2,31.0,29.93,SSE,166,0.0,0.0,97,0.00,,,0.01,weatherlink.com 1.10,2013-04-05 05:05:00,
2013-04-05 01:17:00,31.3,31.0,29.94,SSE,166,0.0,0.0,97,0.00,,,0.00,weatherlink.com 1.10,2013-04-05 05:17:00,
2013-04-05 01:32:00,31.3,31.0,29.94,SSE,166,0.0,2.0,97,0.00,,,0.00,weatherlink.com 1.10,2013-04-05 05:32:00,
2013-04-05 01:47:00,30.8,30.0,29.93,SSE,166,0.0,2.0,97,0.00,,,0.00,weatherlink.com 1.10,2013-04-05 05:47:00,
2013-04-05 02:02:00,30.9,30.0,29.94,SSE,166,0.0,2.0,97,0.00,,,0.00,weatherlink.com 1.10,2013-04-05 06:02:00,
2013-04-05 02:17:00,31.2,31.0,29.93,SSE,166,0.0,2.0,97,0.00,,,0.00,weatherlink.com 1.10,2013-04-05 06:17:00,
2013-04-05 02:32:00,31.4,31.0,29.93,South,172,0.0,2.0,97,0.00,,,0.00,weatherlink.com 1.10,2013-04-05 06:32:00,
2013-04-05 02:47:00,31.0,30.0,29.93,South,172,0.0,2.0,97,0.00,,,0.00,weatherlink.com 1.10,2013-04-05 06:47:00,
2013-04-05 03:02:00,31.5,31.0,29.92,West,273,4.0,8.0,97,0.00,,,0.00,weatherlink.com 1.10,2013-04-05 07:02:00,
2013-04-05 03:17:00,31.9,31.0,29.92,West,278,4.0,8.0,98,0.00,,,0.00,weatherlink.com 1.10,2013-04-05 07:17:00,
2013-04-05 03:32:00,31.8,31.0,29.92,WNW,296,7.0,12.0,97,0.00,,,0.00,weatherlink.com 1.10,2013-04-05 07:32:00,
2013-04-05 03:47:00,31.7,31.0,29.92,NNW,340,5.0,12.0,97,0.00,,,0.00,weatherlink.com 1.10,2013-04-05 07:47:00,
2013-04-05 04:02:00,31.9,31.0,29.92,NNW,338,4.0,13.0,98,0.00,,,0.00,weatherlink.com 1.10,2013-04-05 08:02:00,
2013-04-05 04:18:00,31.8,31.0,29.93,West,265,5.0,11.0,97,0.00,,,0.00,weatherlink.com 1.10,2013-04-05 08:18:00,
2013-04-05 04:32:00,31.6,31.0,29.93,West,263,5.0,14.0,98,0.00,,,0.00,weatherlink.com 1.10,2013-04-05 08:32:00,
2013-04-05 04:47:00,31.3,31.0,29.92,SSE,165,2.0,12.0,97,0.00,,,0.00,weatherlink.com 1.10,2013-04-05 08:47:00,
2013-04-05 05:02:00,31.2,31.0,29.92,WNW,299,7.0,14.0,98,0.00,,,0.00,weatherlink.com 1.10,2013-04-05 09:02:00,
2013-04-05 05:17:00,30.8,30.0,29.92,WNW,291,3.0,17.0,98,0.00,,,0.00,weatherlink.com 1.10,2013-04-05 09:17:00,
2013-04-05 05:32:00,30.4,30.0,29.91,WSW,258,4.0,15.0,98,0.00,,,0.00,weatherlink.com 1.10,2013-04-05 09:32:00,
2013-04-05 05:50:00,30.2,30.0,29.92,North,5,2.0,15.0,98,0.00,,,0.00,weatherlink.com 1.10,2013-04-05 09:50:00,
2013-04-05 06:02:00,29.9,29.0,29.91,WNW,302,11.0,19.0,98,0.00,,,0.00,weatherlink.com 1.10,2013-04-05 10:02:00,
2013-04-05 06:18:00,29.6,29.0,29.91,West,278,5.0,22.0,97,0.00,,,0.00,weatherlink.com 1.10,2013-04-05 10:18:00,
2013-04-05 06:33:00,29.5,29.0,29.91,SSW,204,7.0,20.0,97,0.00,,,0.00,weatherlink.com 1.10,2013-04-05 10:33:00,
2013-04-05 06:50:00,29.3,29.0,29.91,SW,221,11.0,22.0,98,0.00,,,0.00,weatherlink.com 1.10,2013-04-05 10:50:00,
2013-04-05 07:03:00,29.1,28.0,29.92,WSW,238,12.0,20.0,97,0.00,,,0.00,weatherlink.com 1.10,2013-04-05 11:03:00,
2013-04-05 07:18:00,28.9,28.0,29.93,West,271,8.0,17.0,98,0.00,,,0.00,weatherlink.com 1.10,2013-04-05 11:18:00,
2013-04-05 07:33:00,28.9,28.0,29.93,WNW,283,7.0,20.0,97,0.00,,,0.00,weatherlink.com 1.10,2013-04-05 11:33:00,
2013-04-05 07:48:00,29.1,28.0,29.94,WNW,292,8.0,19.0,97,0.00,,,0.00,weatherlink.com 1.10,2013-04-05 11:48:00,
2013-04-05 08:03:00,29.3,29.0,29.96,WNW,291,6.0,15.0,98,0.00,,,0.00,weatherlink.com 1.10,2013-04-05 12:03:00,
2013-04-05 08:18:00,29.2,29.0,29.97,WNW,291,9.0,14.0,97,0.00,,,0.00,weatherlink.com 1.10,2013-04-05 12:18:00,
2013-04-05 08:33:00,29.2,29.0,29.98,WNW,288,5.0,16.0,97,0.00,,,0.00,weatherlink.com 1.10,2013-04-05 12:33:00,
2013-04-05 08:48:00,29.3,29.0,29.99,WNW,288,8.0,13.0,97,0.00,,,0.00,weatherlink.com 1.10,2013-04-05 12:48:00,
2013-04-05 09:04:00,29.3,29.0,29.99,WNW,288,7.0,12.0,97,0.00,,,0.00,weatherlink.com 1.10,2013-04-05 13:04:00,
2013-04-05 09:18:00,29.3,29.0,30.00,WNW,288,16.0,16.0,97,0.00,,,0.00,weatherlink.com 1.10,2013-04-05 13:18:00,
2013-04-05 09:33:00,30.3,30.0,30.00,WNW,288,6.0,14.0,98,0.00,,,0.00,weatherlink.com 1.10,2013-04-05 13:33:00,
2013-04-05 09:48:00,31.2,31.0,30.00,WNW,287,7.0,15.0,98,0.00,,,0.00,weatherlink.com 1.10,2013-04-05 13:48:00,
2013-04-05 10:03:00,31.1,31.0,30.00,WNW,286,6.0,12.0,98,0.00,,,0.00,weatherlink.com 1.10,2013-04-05 14:03:00,
2013-04-05 10:35:00,30.4,30.0,30.02,WNW,284,3.0,10.0,98,0.00,,,0.00,weatherlink.com 1.10,2013-04-05 14:35:00,
2013-04-05 10:48:00,30.3,30.0,30.02,WNW,284,6.0,7.0,98,0.00,,,0.00,weatherlink.com 1.10,2013-04-05 14:48:00,
2013-04-05 11:03:00,30.5,30.0,30.03,WNW,284,0.0,6.0,98,0.00,,,0.00,weatherlink.com 1.10,2013-04-05 15:03:00,
2013-04-05 11:18:00,30.4,30.0,30.03,WNW,284,3.0,11.0,98,0.00,,,0.00,weatherlink.com 1.10,2013-04-05 15:18:00,
2013-04-05 11:33:00,30.7,30.0,30.03,WNW,284,3.0,6.0,98,0.00,,,0.00,weatherlink.com 1.10,2013-04-05 15:33:00,
2013-04-05 11:48:00,31.1,31.0,30.03,WNW,284,3.0,5.0,98,0.00,,,0.00,weatherlink.com 1.10,2013-04-05 15:48:00,
2013-04-05 12:03:00,31.5,31.0,30.03,WNW,283,4.0,13.0,98,0.00,,,0.00,weatherlink.com 1.10,2013-04-05 16:03:00,
2013-04-05 12:18:00,31.5,31.0,30.03,WNW,282,3.0,10.0,98,0.00,,,0.00,weatherlink.com 1.10,2013-04-05 16:18:00,
2013-04-05 12:33:00,31.6,31.0,30.02,WSW,244,2.0,11.0,98,0.00,,,0.00,weatherlink.com 1.10,2013-04-05 16:33:00,
2013-04-05 12:48:00,31.8,31.0,30.02,WSW,242,6.0,15.0,98,0.00,,,0.00,weatherlink.com 1.10,2013-04-05 16:48:00,
2013-04-05 13:03:00,32.0,32.0,30.02,NW,305,4.0,15.0,98,0.01,,,0.01,weatherlink.com 1.10,2013-04-05 17:03:00,
2013-04-05 13:33:00,31.7,31.0,30.01,WSW,255,14.0,17.0,98,0.05,,,0.05,weatherlink.com 1.10,2013-04-05 17:33:00,
2013-04-05 13:49:00,31.9,31.0,30.00,WNW,295,6.0,16.0,98,0.07,,,0.07,weatherlink.com 1.10,2013-04-05 17:49:00,
2013-04-05 14:03:00,32.0,32.0,30.00,SW,236,5.0,13.0,98,0.08,,,0.09,weatherlink.com 1.10,2013-04-05 18:03:00,
2013-04-05 14:18:00,32.4,32.0,29.99,West,273,7.0,12.0,98,0.08,,,0.11,weatherlink.com 1.10,2013-04-05 18:18:00,
2013-04-05 15:04:00,34.5,33.0,30.00,SW,223,5.0,14.0,92,0.07,,,0.16,weatherlink.com 1.10,2013-04-05 19:04:00,
2013-04-05 15:49:00,35.9,32.0,30.00,South,188,5.0,16.0,86,0.02,,,0.17,weatherlink.com 1.10,2013-04-05 19:49:00,
2013-04-05 16:04:00,36.4,32.0,30.00,West,273,10.0,18.0,85,0.02,,,0.18,weatherlink.com 1.10,2013-04-05 20:04:00,
2013-04-05 16:19:00,37.0,33.0,30.00,WSW,237,6.0,18.0,84,0.01,,,0.18,weatherlink.com 1.10,2013-04-05 20:19:00,
2013-04-05 16:34:00,37.2,33.0,29.99,SW,229,3.0,17.0,83,0.01,,,0.18,weatherlink.com 1.10,2013-04-05 20:34:00,
2013-04-05 16:49:00,38.0,33.0,29.99,WNW,287,7.0,13.0,82,0.01,,,0.18,weatherlink.com 1.10,2013-04-05 20:49:00,
2013-04-05 17:19:00,38.9,33.0,30.00,WNW,292,7.0,21.0,79,0.00,,,0.18,weatherlink.com 1.10,2013-04-05 21:19:00,
2013-04-05 17:34:00,38.8,33.0,30.00,SW,229,5.0,19.0,79,0.00,,,0.18,weatherlink.com 1.10,2013-04-05 21:34:00,
2013-04-05 17:49:00,39.2,33.0,30.01,North,5,6.0,17.0,78,0.00,,,0.18,weatherlink.com 1.10,2013-04-05 21:49:00,
2013-04-05 18:04:00,39.7,33.0,30.01,WSW,246,17.0,24.0,76,0.00,,,0.18,weatherlink.com 1.10,2013-04-05 22:04:00,
2013-04-05 18:19:00,39.5,33.0,30.01,SW,229,8.0,17.0,77,0.00,,,0.18,weatherlink.com 1.10,2013-04-05 22:19:00,
2013-04-05 18:34:00,39.3,33.0,30.01,SW,234,12.0,17.0,77,0.00,,,0.18,weatherlink.com 1.10,2013-04-05 22:34:00,
2013-04-05 18:49:00,39.2,33.0,30.02,South,175,1.0,14.0,77,0.00,,,0.18,weatherlink.com 1.10,2013-04-05 22:49:00,
2013-04-05 19:04:00,38.8,33.0,30.03,WNW,288,5.0,15.0,78,0.00,,,0.18,weatherlink.com 1.10,2013-04-05 23:04:00,
2013-04-05 19:19:00,38.6,33.0,30.02,NW,312,3.0,16.0,79,0.00,,,0.18,weatherlink.com 1.10,2013-04-05 23:19:00,
2013-04-05 19:38:00,38.1,33.0,30.03,NW,311,8.0,15.0,81,0.00,,,0.18,weatherlink.com 1.10,2013-04-05 23:38:00,
2013-04-05 19:49:00,37.9,33.0,30.03,WNW,282,6.0,15.0,83,0.00,,,0.18,weatherlink.com 1.10,2013-04-05 23:49:00,
2013-04-05 20:04:00,37.7,33.0,30.04,WSW,255,3.0,16.0,82,0.00,,,0.18,weatherlink.com 1.10,2013-04-06 00:04:00,
2013-04-05 20:19:00,37.5,33.0,30.05,SSW,209,2.0,11.0,83,0.00,,,0.18,weatherlink.com 1.10,2013-04-06 00:19:00,
2013-04-05 20:34:00,37.4,33.0,30.06,WNW,295,7.0,11.0,84,0.00,,,0.18,weatherlink.com 1.10,2013-04-06 00:34:00,
2013-04-05 20:49:00,37.2,33.0,30.06,NW,312,5.0,13.0,84,0.00,,,0.18,weatherlink.com 1.10,2013-04-06 00:49:00,
2013-04-05 21:04:00,37.1,33.0,30.06,NW,307,3.0,11.0,84,0.00,,,0.18,weatherlink.com 1.10,2013-04-06 01:04:00,
2013-04-05 21:19:00,37.2,33.0,30.07,WSW,252,14.0,15.0,83,0.00,,,0.18,weatherlink.com 1.10,2013-04-06 01:19:00,
2013-04-05 21:34:00,37.3,32.0,30.08,WNW,299,9.0,14.0,82,0.00,,,0.18,weatherlink.com 1.10,2013-04-06 01:34:00,
2013-04-05 21:49:00,37.0,32.0,30.08,West,277,7.0,12.0,82,0.00,,,0.18,weatherlink.com 1.10,2013-04-06 01:49:00,
2013-04-05 22:04:00,37.0,32.0,30.08,WNW,296,6.0,20.0,82,0.00,,,0.18,weatherlink.com 1.10,2013-04-06 02:04:00,
2013-04-05 22:19:00,36.8,32.0,30.08,West,271,8.0,15.0,83,0.00,,,0.18,weatherlink.com 1.10,2013-04-06 02:19:00,
2013-04-05 23:34:00,37.0,31.0,30.08,NNW,336,10.0,17.0,78,0.00,,,0.18,weatherlink.com 1.10,2013-04-06 03:34:00,
2013-04-05 23:49:00,36.9,31.0,30.08,NW,311,5.0,15.0,78,0.00,,,0.18,weatherlink.com 1.10,2013-04-06 03:49:00,